createdAt,value
2023-04-28T00:00:14.759Z,4.03
2023-04-28T00:02:43.313Z,3.97
2023-04-28T00:05:12.485Z,4.43
2023-04-28T00:07:41.207Z,4.67
2023-04-28T00:10:11.103Z,4.27
2023-04-28T00:12:41.108Z,4.47
2023-04-28T00:15:10.372Z,4.10
2023-04-28T00:17:39.048Z,3.70
2023-04-28T00:20:09.232Z,4.23
2023-04-28T00:22:37.745Z,3.97
2023-04-28T00:25:07.025Z,4.40
2023-04-28T00:27:35.800Z,4.00
2023-04-28T00:30:06.488Z,3.97
2023-04-28T00:32:34.954Z,3.97
2023-04-28T00:35:03.492Z,4.00
2023-04-28T00:37:31.985Z,3.90
2023-04-28T00:40:00.529Z,3.50
2023-04-28T00:42:29.235Z,4.40
2023-04-28T00:44:57.937Z,4.10
2023-04-28T00:47:28.021Z,3.70
2023-04-28T00:49:57.443Z,3.63
2023-04-28T00:52:26.137Z,4.03
2023-04-28T00:54:54.750Z,3.90
2023-04-28T00:57:24.039Z,3.30
2023-04-28T00:59:52.576Z,3.03
2023-04-28T01:02:21.134Z,3.50
2023-04-28T01:04:53.078Z,3.37
2023-04-28T01:07:21.694Z,3.03
2023-04-28T01:09:50.704Z,3.10
2023-04-28T01:12:19.153Z,3.23
2023-04-28T01:14:47.867Z,3.20
2023-04-28T01:17:16.640Z,3.77
2023-04-28T01:19:45.296Z,3.70
2023-04-28T01:22:16.991Z,3.50
2023-04-28T01:24:46.867Z,3.57
2023-04-28T01:27:15.336Z,3.93
2023-04-28T01:29:43.872Z,3.43
2023-04-28T01:32:12.413Z,3.70
2023-04-28T01:34:40.856Z,3.53
2023-04-28T01:37:09.274Z,3.87
2023-04-28T01:39:37.713Z,3.27
2023-04-28T01:42:07.811Z,3.27
2023-04-28T01:44:36.504Z,3.53
2023-04-28T01:47:05.148Z,3.67
2023-04-28T01:49:33.571Z,3.00
2023-04-28T01:52:02.000Z,3.23
2023-04-28T01:54:30.530Z,3.13
2023-04-28T01:56:58.970Z,3.13
2023-04-28T01:59:28.862Z,3.00
2023-04-28T02:01:57.318Z,3.20
2023-04-28T02:04:26.487Z,3.10
2023-04-28T02:06:55.159Z,3.20
2023-04-28T02:09:23.666Z,3.23
2023-04-28T02:11:52.192Z,3.00
2023-04-28T02:14:20.749Z,3.13
2023-04-28T02:16:50.783Z,3.07
2023-04-28T02:19:19.245Z,3.63
2023-04-28T02:21:47.936Z,3.30
2023-04-28T02:24:16.642Z,3.50
2023-04-28T02:26:45.577Z,3.40
2023-04-28T02:29:14.060Z,3.00
2023-04-28T02:31:42.551Z,3.37
2023-04-28T02:34:12.633Z,3.70
2023-04-28T02:36:41.067Z,3.70
2023-04-28T02:39:09.594Z,4.10
2023-04-28T02:41:37.941Z,4.00
2023-04-28T02:44:06.697Z,4.10
2023-04-28T02:46:35.289Z,3.50
2023-04-28T02:49:03.822Z,4.27
2023-04-28T02:51:33.712Z,4.00
2023-04-28T02:54:02.490Z,3.77
2023-04-28T02:56:31.195Z,4.17
2023-04-28T02:58:59.631Z,4.60
2023-04-28T03:01:28.245Z,4.07
2023-04-28T03:03:56.909Z,3.80
2023-04-28T03:06:26.883Z,4.10
2023-04-28T03:08:56.744Z,3.77
2023-04-28T03:11:25.860Z,3.70
2023-04-28T03:13:54.399Z,3.87
2023-04-28T03:16:22.844Z,3.50
2023-04-28T03:18:51.358Z,3.93
2023-04-28T03:21:19.967Z,3.87
2023-04-28T03:23:48.446Z,4.03
2023-04-28T03:26:18.422Z,4.60
2023-04-28T03:28:46.831Z,4.57
2023-04-28T03:31:15.636Z,4.17
2023-04-28T03:33:45.717Z,3.97
2023-04-28T03:36:14.569Z,4.53
2023-04-28T03:38:43.282Z,4.00
2023-04-28T03:41:11.982Z,4.33
2023-04-28T03:43:42.060Z,3.87
2023-04-28T03:46:10.762Z,4.43
2023-04-28T03:48:39.383Z,4.57
2023-04-28T03:51:07.971Z,4.30
2023-04-28T03:53:36.448Z,4.30
2023-04-28T03:56:04.997Z,4.47
2023-04-28T03:58:33.475Z,3.80
2023-04-28T04:01:03.412Z,4.40
2023-04-28T04:03:32.309Z,4.90
2023-04-28T04:06:00.782Z,4.50
2023-04-28T04:08:29.450Z,4.23
2023-04-28T04:10:57.880Z,4.20
2023-04-28T04:13:26.209Z,3.97
2023-04-28T04:15:54.487Z,4.37
2023-04-28T04:18:24.553Z,4.53
2023-04-28T04:20:54.192Z,4.20
2023-04-28T04:23:22.508Z,4.33
2023-04-28T04:25:51.071Z,4.43
2023-04-28T04:28:19.432Z,4.03
2023-04-28T04:30:47.936Z,4.50
2023-04-28T04:33:16.536Z,3.70
2023-04-28T04:35:46.376Z,4.23
2023-04-28T04:38:14.907Z,4.87
2023-04-28T04:40:43.242Z,4.43
2023-04-28T04:43:11.640Z,4.33
2023-04-28T04:45:40.295Z,4.50
2023-04-28T04:48:08.746Z,4.37
2023-04-28T04:50:37.172Z,4.20
2023-04-28T04:53:09.137Z,3.67
2023-04-28T04:55:39.564Z,4.33
2023-04-28T04:58:08.011Z,4.30
2023-04-28T05:00:37.461Z,4.10
2023-04-28T05:03:06.620Z,4.30
2023-04-28T05:05:35.173Z,4.00
2023-04-28T05:08:03.847Z,3.87
2023-04-28T05:10:34.014Z,3.63
2023-04-28T05:13:02.617Z,4.40
2023-04-28T05:15:31.675Z,4.37
2023-04-28T05:18:00.469Z,3.90
2023-04-28T05:20:29.016Z,4.13
2023-04-28T05:22:57.734Z,4.40
2023-04-28T05:25:26.416Z,3.93
2023-04-28T05:27:56.220Z,3.70
2023-04-28T05:30:24.631Z,3.37
2023-04-28T05:32:52.906Z,3.77
2023-04-28T05:35:21.713Z,3.63
2023-04-28T05:37:50.162Z,3.87
2023-04-28T05:40:18.887Z,4.00
2023-04-28T05:42:47.201Z,3.57
2023-04-28T05:45:17.153Z,3.80
2023-04-28T05:47:45.842Z,3.53
2023-04-28T05:50:14.175Z,3.80
2023-04-28T05:52:42.553Z,4.13
2023-04-28T05:55:11.781Z,3.70
2023-04-28T05:57:49.821Z,3.80
2023-04-28T06:00:23.067Z,3.67
2023-04-28T06:02:51.604Z,3.63
2023-04-28T06:05:20.329Z,3.30
2023-04-28T06:07:50.189Z,3.17
2023-04-28T06:10:18.878Z,3.10
2023-04-28T06:12:47.585Z,3.70
2023-04-28T06:15:16.095Z,3.37
2023-04-28T06:17:46.321Z,3.00
2023-04-28T06:20:14.906Z,3.47
2023-04-28T06:22:43.421Z,3.60
2023-04-28T06:25:11.865Z,3.27
2023-04-28T06:27:40.651Z,3.17
2023-04-28T06:30:10.103Z,3.20
2023-04-28T06:32:38.662Z,2.83
2023-04-28T06:35:09.214Z,3.60
2023-04-28T06:37:37.580Z,3.27
2023-04-28T06:40:06.721Z,3.70
2023-04-28T06:42:35.219Z,2.93
2023-04-28T06:45:03.723Z,3.73
2023-04-28T06:47:32.098Z,3.37
2023-04-28T06:50:01.886Z,3.00
2023-04-28T06:52:38.676Z,3.23
2023-04-28T06:55:09.509Z,3.20
2023-04-28T06:57:38.408Z,3.23
2023-04-28T07:00:08.342Z,2.97
2023-04-28T07:02:37.273Z,3.13
2023-04-28T07:05:06.158Z,3.00
2023-04-28T07:07:36.164Z,3.53
2023-04-28T07:10:04.681Z,3.53
2023-04-28T07:12:33.194Z,3.63
2023-04-28T07:15:01.656Z,3.30
2023-04-28T07:17:30.053Z,3.57
2023-04-28T07:19:58.599Z,3.57
2023-04-28T07:22:27.216Z,3.37
2023-04-28T07:24:57.066Z,3.57
2023-04-28T07:27:25.536Z,3.53
2023-04-28T07:29:53.931Z,4.30
2023-04-28T07:32:22.669Z,3.63
2023-04-28T07:34:51.307Z,3.80
2023-04-28T07:37:20.455Z,3.90
2023-04-28T07:39:48.938Z,3.70
2023-04-28T07:42:19.227Z,7.57
2023-04-28T07:44:47.584Z,6.53
2023-04-28T07:47:16.434Z,11.13
2023-04-28T07:49:44.777Z,4.33
2023-04-28T07:52:13.259Z,4.87
2023-04-28T07:54:41.640Z,3.93
2023-04-28T07:57:10.832Z,4.47
2023-04-28T07:59:40.797Z,4.13
2023-04-28T08:02:09.473Z,4.10
2023-04-28T08:04:39.304Z,4.23
2023-04-28T08:07:07.802Z,4.33
2023-04-28T08:09:36.429Z,3.90
2023-04-28T08:12:05.476Z,3.70
2023-04-28T08:14:33.917Z,3.77
2023-04-28T08:17:04.091Z,5.27
2023-04-28T08:19:33.485Z,3.83
2023-04-28T08:22:05.989Z,3.40
2023-04-28T08:24:35.379Z,3.73
2023-04-28T08:27:04.351Z,3.70
2023-04-28T08:29:32.856Z,3.23
2023-04-28T08:32:02.418Z,3.33
2023-04-28T08:34:32.338Z,3.67
2023-04-28T08:37:00.933Z,3.30
2023-04-28T08:39:30.894Z,3.70
2023-04-28T08:41:59.319Z,3.60
2023-04-28T08:44:27.645Z,3.43
2023-04-28T08:47:00.885Z,3.40
2023-04-28T08:49:37.179Z,3.53
2023-04-28T08:52:11.142Z,3.73
2023-04-28T08:54:41.785Z,3.80
2023-04-28T08:57:11.458Z,4.30
2023-04-28T08:59:41.748Z,4.50
2023-04-28T09:02:10.663Z,3.90
2023-04-28T09:04:40.994Z,5.90
2023-04-28T09:07:13.156Z,4.33
2023-04-28T09:09:42.050Z,4.03
2023-04-28T09:12:10.409Z,4.63
2023-04-28T09:14:40.061Z,4.07
2023-04-28T09:17:13.372Z,3.90
2023-04-28T09:19:43.916Z,4.27
2023-04-28T09:22:24.744Z,4.37
2023-04-28T09:24:55.509Z,4.77
2023-04-28T09:27:29.016Z,4.90
2023-04-28T09:29:57.559Z,4.57
2023-04-28T09:32:28.107Z,5.03
2023-04-28T09:34:58.309Z,4.83
2023-04-28T09:37:30.981Z,4.30
2023-04-28T09:40:04.914Z,4.80
2023-04-28T09:42:34.872Z,4.93
2023-04-28T09:45:04.090Z,4.67
2023-04-28T09:47:35.180Z,4.40
2023-04-28T09:50:06.823Z,4.70
2023-04-28T09:52:35.963Z,4.33
2023-04-28T09:55:06.337Z,4.20
2023-04-28T09:57:36.070Z,4.33
2023-04-28T10:00:07.091Z,4.67
2023-04-28T10:05:11.627Z,4.27
2023-04-28T10:07:40.646Z,3.97
2023-04-28T10:10:09.895Z,4.40
2023-04-28T10:12:39.197Z,4.53
2023-04-28T10:15:10.821Z,4.77
2023-04-28T10:17:40.709Z,4.97
2023-04-28T10:20:12.656Z,4.23
2023-04-28T10:22:55.441Z,4.50
2023-04-28T10:25:29.888Z,5.00
2023-04-28T10:27:59.531Z,4.30
2023-04-28T10:30:30.342Z,4.57
2023-04-28T10:33:27.479Z,4.50
2023-04-28T10:35:57.379Z,4.47
2023-04-28T10:38:25.730Z,4.00
2023-04-28T10:40:55.185Z,5.63
2023-04-28T10:43:37.781Z,5.00
2023-04-28T10:46:10.786Z,4.50
2023-04-28T10:48:58.233Z,4.47
2023-04-28T10:51:33.302Z,4.57
2023-04-28T10:54:20.625Z,4.90
2023-04-28T10:57:18.174Z,4.43
2023-04-28T10:59:46.821Z,3.90
2023-04-28T11:02:43.640Z,4.60
2023-04-28T11:05:19.095Z,4.53
2023-04-28T11:08:31.109Z,4.83
2023-04-28T11:11:20.115Z,4.23
2023-04-28T11:13:49.613Z,4.23
2023-04-28T11:16:20.039Z,4.73
2023-04-28T11:18:59.449Z,4.50
2023-04-28T11:21:29.525Z,5.03
2023-04-28T11:23:59.111Z,4.67
2023-04-28T11:26:29.732Z,5.30
2023-04-28T11:28:59.644Z,5.53
2023-04-28T11:31:28.985Z,5.17
2023-04-28T11:34:06.901Z,4.73
2023-04-28T11:36:37.217Z,5.03
2023-04-28T11:39:07.793Z,6.00
2023-04-28T11:41:38.343Z,4.90
2023-04-28T11:44:16.018Z,9.60
2023-04-28T11:46:51.110Z,9.33
2023-04-28T11:49:21.362Z,9.20
2023-04-28T11:51:50.489Z,5.90
2023-04-28T11:54:24.278Z,4.93
2023-04-28T11:56:54.911Z,6.77
2023-04-28T11:59:27.336Z,5.27
2023-04-28T12:01:59.429Z,5.33
2023-04-28T12:04:35.884Z,5.60
2023-04-28T12:07:07.185Z,6.13
2023-04-28T12:09:36.564Z,4.73
2023-04-28T12:12:07.682Z,4.60
2023-04-28T12:14:56.547Z,4.80
2023-04-28T12:17:26.231Z,5.20
2023-04-28T12:19:54.831Z,4.80
2023-04-28T12:22:23.621Z,4.20
2023-04-28T12:25:06.942Z,4.80
2023-04-28T12:27:39.269Z,5.47
2023-04-28T12:30:26.185Z,4.30
2023-04-28T12:32:58.308Z,5.17
2023-04-28T12:35:27.478Z,5.53
2023-04-28T12:37:58.632Z,5.30
2023-04-28T12:40:27.558Z,4.53
2023-04-28T12:42:57.426Z,5.27
2023-04-28T12:45:25.900Z,4.57
2023-04-28T12:47:54.508Z,4.13
2023-04-28T12:50:23.095Z,4.23
2023-04-28T12:52:51.674Z,4.53
2023-04-28T12:55:20.335Z,4.27
2023-04-28T12:57:48.881Z,4.50
2023-04-28T13:00:23.395Z,3.60
2023-04-28T13:02:53.441Z,3.70
2023-04-28T13:05:22.053Z,3.73
2023-04-28T13:07:51.049Z,4.10
2023-04-28T13:10:21.500Z,4.23
2023-04-28T13:12:49.967Z,4.50
2023-04-28T13:15:20.309Z,5.07
2023-04-28T13:17:50.187Z,4.60
2023-04-28T13:20:18.967Z,4.30
2023-04-28T13:22:47.634Z,4.80
2023-04-28T13:25:16.572Z,4.43
2023-04-28T13:27:45.371Z,4.10
2023-04-28T13:30:15.094Z,4.70
2023-04-28T13:32:45.226Z,5.13
2023-04-28T13:35:14.025Z,4.70
2023-04-28T13:37:46.193Z,8.37
2023-04-28T13:40:15.109Z,8.50
2023-04-28T13:42:43.933Z,4.73
2023-04-28T13:45:13.977Z,6.57
2023-04-28T13:47:45.612Z,5.20
2023-04-28T13:50:14.252Z,5.90
2023-04-28T13:52:43.040Z,6.00
2023-04-28T13:55:11.730Z,5.70
2023-04-28T13:57:40.442Z,7.13
2023-04-28T14:00:10.281Z,9.10
2023-04-28T14:02:39.811Z,5.23
2023-04-28T14:05:11.615Z,5.37
2023-04-28T14:07:40.277Z,5.10
2023-04-28T14:10:09.509Z,5.33
2023-04-28T14:12:38.475Z,6.17
2023-04-28T14:15:08.338Z,5.70
2023-04-28T14:17:37.938Z,5.17
2023-04-28T14:20:07.906Z,8.93
2023-04-28T14:22:37.972Z,5.83
2023-04-28T14:25:08.197Z,5.47
2023-04-28T14:27:36.957Z,5.37
2023-04-28T14:30:06.449Z,12.83
2023-04-28T14:32:35.555Z,13.17
2023-04-28T14:35:06.375Z,6.07
2023-04-28T14:37:35.363Z,5.93
2023-04-28T14:40:06.236Z,6.87
2023-04-28T14:42:37.303Z,16.03
2023-04-28T14:45:06.958Z,11.23
2023-04-28T14:47:36.172Z,4.70
2023-04-28T14:50:05.831Z,6.53
2023-04-28T14:52:34.720Z,5.57
2023-04-28T14:55:05.521Z,6.80
2023-04-28T14:57:35.601Z,5.80
2023-04-28T15:00:04.896Z,5.20
2023-04-28T15:02:33.523Z,5.03
2023-04-28T15:05:02.555Z,4.90
2023-04-28T15:07:32.739Z,5.60
2023-04-28T15:10:01.261Z,5.97
2023-04-28T15:12:32.579Z,6.57
2023-04-28T15:15:00.980Z,5.63
2023-04-28T15:17:29.499Z,6.20
2023-04-28T15:19:57.937Z,8.10
2023-04-28T15:22:26.413Z,6.37
2023-04-28T15:24:56.050Z,6.07
2023-04-28T15:27:24.516Z,17.57
2023-04-28T15:29:55.756Z,5.67
2023-04-28T15:32:24.269Z,5.63
2023-04-28T15:34:53.007Z,5.87
2023-04-28T15:37:41.671Z,6.60
2023-04-28T15:40:12.022Z,6.57
2023-04-28T15:42:42.307Z,9.53
2023-04-28T15:45:13.425Z,5.93
2023-04-28T15:47:42.757Z,6.27
2023-04-28T15:50:12.485Z,6.47
2023-04-28T15:52:46.077Z,6.63
2023-04-28T15:55:15.295Z,6.13
2023-04-28T15:57:44.601Z,7.47
2023-04-28T16:00:15.881Z,6.37
2023-04-28T16:02:45.316Z,6.63
2023-04-28T16:05:14.244Z,7.23
2023-04-28T16:07:42.925Z,7.27
2023-04-28T16:10:12.688Z,7.17
2023-04-28T16:12:41.920Z,7.60
2023-04-28T16:15:12.786Z,6.60
2023-04-28T16:17:44.459Z,8.70
2023-04-28T16:20:13.726Z,7.00
2023-04-28T16:22:43.206Z,8.87
2023-04-28T16:25:12.284Z,10.33
2023-04-28T16:27:41.844Z,7.70
2023-04-28T16:30:11.206Z,9.20
2023-04-28T16:32:40.845Z,8.90
2023-04-28T16:35:15.239Z,13.60
2023-04-28T16:37:44.694Z,10.47
2023-04-28T16:40:14.474Z,14.93
2023-04-28T16:42:43.628Z,10.13
2023-04-28T16:45:13.078Z,10.57
2023-04-28T16:47:43.500Z,8.27
2023-04-28T16:50:15.075Z,7.00
2023-04-28T16:52:43.580Z,8.53
2023-04-28T16:55:12.221Z,7.33
2023-04-28T16:57:41.526Z,8.17
2023-04-28T17:00:11.290Z,7.57
2023-04-28T17:02:39.851Z,7.23
2023-04-28T17:05:09.260Z,7.40
2023-04-28T17:07:39.176Z,8.20
2023-04-28T17:10:08.472Z,7.40
2023-04-28T17:12:36.916Z,6.97
2023-04-28T17:15:06.106Z,8.07
2023-04-28T17:17:34.821Z,8.60
2023-04-28T17:20:03.652Z,8.17
2023-04-28T17:22:33.263Z,8.33
2023-04-28T17:25:03.036Z,8.70
2023-04-28T17:27:31.680Z,8.87
2023-04-28T17:30:00.011Z,10.13
2023-04-28T17:32:28.809Z,8.27
2023-04-28T17:34:57.193Z,8.63
2023-04-28T17:37:25.580Z,8.73
2023-04-28T17:39:53.920Z,8.80
2023-04-28T17:42:23.700Z,15.10
2023-04-28T17:44:52.427Z,12.73
2023-04-28T17:47:20.969Z,10.50
2023-04-28T17:49:49.270Z,9.87
2023-04-28T17:52:17.594Z,10.03
2023-04-28T17:54:45.910Z,8.70
2023-04-28T17:57:14.525Z,9.10
2023-04-28T17:59:45.432Z,8.43
2023-04-28T18:02:13.927Z,8.63
2023-04-28T18:04:42.341Z,9.23
2023-04-28T18:07:10.756Z,9.80
2023-04-28T18:09:39.086Z,8.53
2023-04-28T18:12:07.787Z,9.67
2023-04-28T18:14:36.151Z,10.33
2023-04-28T18:17:05.859Z,8.73
2023-04-28T18:19:34.317Z,8.77
2023-04-28T18:22:02.791Z,9.20
2023-04-28T18:24:31.493Z,10.87
2023-04-28T18:26:59.972Z,10.80
2023-04-28T18:29:28.494Z,10.93
2023-04-28T18:31:56.930Z,7.97
2023-04-28T18:34:27.451Z,9.37
2023-04-28T18:36:55.772Z,9.20
2023-04-28T18:39:24.094Z,7.87
2023-04-28T18:41:52.649Z,7.20
2023-04-28T18:44:21.144Z,8.43
2023-04-28T18:46:49.496Z,9.57
2023-04-28T18:49:17.903Z,10.00
2023-04-28T18:51:47.527Z,9.60
2023-04-28T18:54:17.077Z,8.97
2023-04-28T18:56:45.662Z,14.17
2023-04-28T18:59:13.909Z,10.43
2023-04-28T19:01:42.306Z,8.03
2023-04-28T19:04:11.052Z,9.63
2023-04-28T19:06:39.579Z,8.27
2023-04-28T19:09:09.431Z,8.53
2023-04-28T19:11:37.777Z,7.60
2023-04-28T19:14:06.678Z,7.23
2023-04-28T19:16:35.141Z,8.33
2023-04-28T19:19:03.628Z,7.87
2023-04-28T19:21:34.645Z,7.70
2023-04-28T19:24:03.077Z,8.93
2023-04-28T19:26:32.769Z,7.80
2023-04-28T19:29:01.344Z,7.50
2023-04-28T19:31:29.764Z,8.40
2023-04-28T19:33:59.036Z,7.83
2023-04-28T19:36:28.470Z,7.93
2023-04-28T19:38:56.813Z,8.80
2023-04-28T19:41:25.221Z,7.43
2023-04-28T19:43:55.125Z,6.83
2023-04-28T19:46:23.490Z,7.67
2023-04-28T19:48:52.839Z,7.40
2023-04-28T19:51:21.498Z,7.87
2023-04-28T19:53:51.108Z,9.67
2023-04-28T19:56:20.460Z,10.03
2023-04-28T19:58:49.032Z,10.93
2023-04-28T20:01:18.808Z,10.07
2023-04-28T20:03:47.231Z,12.40
2023-04-28T20:06:18.847Z,8.03
2023-04-28T20:08:47.240Z,18.80
2023-04-28T20:11:15.514Z,7.13
2023-04-28T20:13:43.766Z,7.83
2023-04-28T20:16:12.229Z,7.70
2023-04-28T20:18:41.906Z,7.90
2023-04-28T20:21:10.504Z,8.40
2023-04-28T20:23:38.844Z,7.77
2023-04-28T20:26:07.182Z,11.10
2023-04-28T20:28:36.268Z,8.07
2023-04-28T20:31:08.756Z,13.20
2023-04-28T20:33:37.205Z,8.87
2023-04-28T20:36:07.014Z,8.47
2023-04-28T20:38:35.344Z,9.67
2023-04-28T20:41:04.544Z,7.07
2023-04-28T20:43:33.460Z,8.00
2023-04-28T20:46:01.766Z,7.00
2023-04-28T20:48:30.334Z,8.40
2023-04-28T20:50:59.009Z,7.27
2023-04-28T20:53:28.779Z,6.80
2023-04-28T20:55:57.418Z,6.60
2023-04-28T20:58:26.205Z,6.40
2023-04-28T21:00:54.664Z,7.63
2023-04-28T21:03:23.984Z,7.47
2023-04-28T21:05:52.441Z,8.07
2023-04-28T21:08:21.574Z,7.70
2023-04-28T21:10:51.587Z,7.83
2023-04-28T21:13:20.152Z,7.53
2023-04-28T21:15:48.722Z,7.70
2023-04-28T21:18:17.370Z,7.33
2023-04-28T21:20:45.929Z,6.60
2023-04-28T21:23:14.478Z,6.83
2023-04-28T21:25:42.886Z,6.83
2023-04-28T21:28:12.996Z,6.43
2023-04-28T21:30:41.520Z,6.83
2023-04-28T21:33:10.059Z,6.50
2023-04-28T21:35:38.673Z,6.27
2023-04-28T21:38:08.004Z,6.60
2023-04-28T21:40:36.478Z,6.20
2023-04-28T21:43:06.053Z,6.37
2023-04-28T21:45:36.174Z,5.97
2023-04-28T21:48:06.466Z,5.87
2023-04-28T21:50:36.450Z,6.30
2023-04-28T21:53:05.356Z,6.90
2023-04-28T21:55:33.843Z,6.60
2023-04-28T21:58:02.421Z,5.87
2023-04-28T22:00:31.349Z,6.57
2023-04-28T22:03:01.464Z,7.03
2023-04-28T22:05:30.166Z,6.03
2023-04-28T22:07:58.668Z,5.90
2023-04-28T22:10:27.370Z,7.03
2023-04-28T22:12:56.021Z,6.10
2023-04-28T22:15:24.532Z,6.10
2023-04-28T22:17:53.256Z,6.57
2023-04-28T22:20:23.340Z,5.07
2023-04-28T22:22:52.796Z,5.93
2023-04-28T22:25:21.588Z,6.30
2023-04-28T22:27:50.460Z,6.60
2023-04-28T22:30:19.790Z,6.23
2023-04-28T22:32:48.627Z,5.97
2023-04-28T22:35:18.092Z,5.93
2023-04-28T22:37:48.327Z,5.93
2023-04-28T22:40:17.234Z,6.07
2023-04-28T22:42:46.652Z,6.23
2023-04-28T22:45:15.667Z,5.97
2023-04-28T22:47:44.936Z,5.30
2023-04-28T22:50:13.861Z,5.80
2023-04-28T22:52:42.861Z,5.53
2023-04-28T22:55:13.474Z,5.27
2023-04-28T22:57:43.804Z,5.33
2023-04-28T23:00:16.280Z,5.63
2023-04-28T23:02:45.420Z,6.13
2023-04-28T23:05:14.882Z,6.10
2023-04-28T23:07:44.515Z,5.57
2023-04-28T23:10:15.823Z,6.20
2023-04-28T23:12:45.216Z,5.20
2023-04-28T23:15:14.555Z,5.60
2023-04-28T23:17:43.624Z,5.97
2023-04-28T23:20:13.593Z,6.00
2023-04-28T23:22:42.783Z,5.33
2023-04-28T23:25:11.895Z,6.00
2023-04-28T23:27:42.132Z,5.47
2023-04-28T23:30:12.101Z,5.13
2023-04-28T23:32:40.876Z,12.43
2023-04-28T23:35:10.304Z,8.93
2023-04-28T23:37:39.418Z,6.20
2023-04-28T23:40:09.128Z,6.30
2023-04-28T23:42:37.510Z,5.43
2023-04-28T23:45:09.891Z,5.83
2023-04-28T23:47:38.416Z,6.17
2023-04-28T23:50:08.331Z,5.57
2023-04-28T23:52:37.577Z,5.90
2023-04-28T23:55:07.095Z,6.03
2023-04-28T23:57:36.332Z,6.30
